Terminal Aerodrome Forecast
Issued by NWS

Home | Current Version | Previous Version | Text Only | Print | Product List | Glossary On
Versions: 1 2 3 4 5 6 7 8 9 10 11 12 13 14 15 16 17 18
000
FTAK31 PAJN 290500 CCA
TAFAYA
TAF COR
PAYA 290555Z 2906/3006 26004KT P6SM OVC008
     FM291400 00000KT 2SM BR OVC004
     FM291800 25006KT P6SM SCT004 SCT015
     FM292000 25008KT P6SM SKC
      AMD LTD TO CLD VIS AND WIND 2906/2910=

USA.gov is the U.S. government's official web portal to all federal, state and local government web resources and services.